createdAt,value
2018-12-22T00:00:46.176Z,996.03
2018-12-22T00:01:46.168Z,995.81
2018-12-22T00:02:46.155Z,995.85
2018-12-22T00:03:46.142Z,995.81
2018-12-22T00:04:46.144Z,995.86
2018-12-22T00:05:46.146Z,995.85
2018-12-22T00:06:46.119Z,995.84
2018-12-22T00:07:46.107Z,995.77
2018-12-22T00:08:46.092Z,995.84
2018-12-22T00:09:46.086Z,995.88
2018-12-22T00:10:46.090Z,995.81
2018-12-22T00:11:46.055Z,995.94
2018-12-22T00:12:46.062Z,995.91
2018-12-22T00:13:46.036Z,995.86
2018-12-22T00:14:46.030Z,995.84
2018-12-22T00:15:46.038Z,995.88
2018-12-22T00:16:46.009Z,995.88
2018-12-22T00:17:45.996Z,995.89
2018-12-22T00:18:45.992Z,995.89
2018-12-22T00:19:45.975Z,995.97
2018-12-22T00:20:45.981Z,995.92
2018-12-22T00:21:45.955Z,995.96
2018-12-22T00:22:45.952Z,995.95
2018-12-22T00:23:45.930Z,995.95
2018-12-22T00:24:45.921Z,996.00
2018-12-22T00:25:45.932Z,996.02
2018-12-22T00:26:45.910Z,996.01
2018-12-22T00:27:45.887Z,996.05
2018-12-22T00:28:45.887Z,996.08
2018-12-22T00:29:45.868Z,996.16
2018-12-22T00:30:45.874Z,996.06
2018-12-22T00:31:45.855Z,996.03
2018-12-22T00:32:45.840Z,996.10
2018-12-22T00:33:45.824Z,996.05
2018-12-22T00:34:45.824Z,996.13
2018-12-22T00:35:45.832Z,996.17
2018-12-22T00:36:45.804Z,996.01
2018-12-22T00:37:45.791Z,996.02
2018-12-22T00:38:45.775Z,996.08
2018-12-22T00:39:45.767Z,996.15
2018-12-22T00:40:45.787Z,996.16
2018-12-22T00:41:45.751Z,996.10
2018-12-22T00:42:45.731Z,996.19
2018-12-22T00:43:45.719Z,996.15
2018-12-22T00:44:45.713Z,996.11
2018-12-22T00:45:45.704Z,996.15
2018-12-22T00:46:45.714Z,996.29
2018-12-22T00:47:45.681Z,996.25
2018-12-22T00:48:45.675Z,996.26
2018-12-22T00:49:45.659Z,996.32
2018-12-22T00:50:45.650Z,996.31
2018-12-22T00:51:45.662Z,996.35
2018-12-22T00:52:45.628Z,996.37
2018-12-22T00:53:45.619Z,996.45
2018-12-22T00:54:45.604Z,996.38
2018-12-22T00:55:45.591Z,996.44
2018-12-22T00:56:45.608Z,996.39
2018-12-22T00:57:45.594Z,996.42
2018-12-22T00:58:45.566Z,996.47
2018-12-22T00:59:45.568Z,996.51
2018-12-22T01:00:45.544Z,996.55
2018-12-22T01:01:45.551Z,996.59
2018-12-22T01:02:45.522Z,996.62
2018-12-22T01:03:45.518Z,996.61
2018-12-22T01:04:45.507Z,996.68
2018-12-22T01:05:45.493Z,996.62
2018-12-22T01:06:45.491Z,996.74
2018-12-22T01:07:45.472Z,996.76
2018-12-22T01:08:45.458Z,996.88
2018-12-22T01:09:45.457Z,996.91
2018-12-22T01:10:45.534Z,996.89
2018-12-22T01:11:45.453Z,996.88
2018-12-22T01:12:45.479Z,996.91
2018-12-22T01:13:45.401Z,996.96
2018-12-22T01:14:45.395Z,996.89
2018-12-22T01:15:45.394Z,997.09
2018-12-22T01:16:45.412Z,996.96
2018-12-22T01:17:45.366Z,997.10
2018-12-22T01:18:45.350Z,997.04
2018-12-22T01:19:45.356Z,997.09
2018-12-22T01:20:45.337Z,997.03
2018-12-22T01:21:45.319Z,997.04
2018-12-22T01:22:45.363Z,997.07
2018-12-22T01:23:45.301Z,997.06
2018-12-22T01:24:45.295Z,996.98
2018-12-22T01:25:45.279Z,997.01
2018-12-22T01:26:45.273Z,997.15
2018-12-22T01:27:45.293Z,997.16
2018-12-22T01:28:45.273Z,997.09
2018-12-22T01:29:45.231Z,997.18
2018-12-22T01:30:45.223Z,997.16
2018-12-22T01:31:45.213Z,997.24
2018-12-22T01:32:45.224Z,997.15
2018-12-22T01:33:45.213Z,997.16
2018-12-22T01:34:45.180Z,997.17
2018-12-22T01:35:45.168Z,997.18
2018-12-22T01:36:45.164Z,997.16
2018-12-22T01:37:45.174Z,997.14
2018-12-22T01:38:45.146Z,997.16
2018-12-22T01:39:45.132Z,997.17
2018-12-22T01:40:45.116Z,997.19
2018-12-22T01:41:45.223Z,997.32
2018-12-22T01:42:45.126Z,997.36
2018-12-22T01:43:45.094Z,997.17
2018-12-22T01:44:45.086Z,997.27
2018-12-22T01:45:45.071Z,997.26
2018-12-22T01:46:45.052Z,997.28
2018-12-22T01:47:45.086Z,997.26
2018-12-22T01:48:45.036Z,997.35
2018-12-22T01:49:45.030Z,997.37
2018-12-22T01:50:45.020Z,997.27
2018-12-22T01:51:45.012Z,997.45
2018-12-22T01:52:45.017Z,997.31
2018-12-22T01:53:44.979Z,997.32
2018-12-22T01:54:44.988Z,997.39
2018-12-22T01:55:44.962Z,997.41
2018-12-22T01:56:44.962Z,997.29
2018-12-22T01:57:44.966Z,997.32
2018-12-22T01:58:47.987Z,997.31
2018-12-22T01:59:44.919Z,997.36
2018-12-22T02:00:44.908Z,997.37
2018-12-22T02:01:44.898Z,997.36
2018-12-22T02:02:44.884Z,997.35
2018-12-22T02:03:44.916Z,997.42
2018-12-22T02:04:44.860Z,997.35
2018-12-22T02:05:44.854Z,997.46
2018-12-22T02:06:44.840Z,997.51
2018-12-22T02:07:44.834Z,997.42
2018-12-22T02:08:44.842Z,997.50
2018-12-22T02:09:44.807Z,997.61
2018-12-22T02:10:44.796Z,997.53
2018-12-22T02:11:44.790Z,997.67
2018-12-22T02:12:44.781Z,997.49
2018-12-22T02:13:44.794Z,997.70
2018-12-22T02:14:44.768Z,997.66
2018-12-22T02:15:44.743Z,997.55
2018-12-22T02:16:44.743Z,997.67
2018-12-22T02:17:44.734Z,997.63
2018-12-22T02:18:44.741Z,997.64
2018-12-22T02:19:44.708Z,997.71
2018-12-22T02:20:44.702Z,997.65
2018-12-22T02:21:44.680Z,997.67
2018-12-22T02:22:44.668Z,997.67
2018-12-22T02:23:44.678Z,997.65
2018-12-22T02:24:44.654Z,997.73
2018-12-22T02:25:44.652Z,997.62
2018-12-22T02:26:44.636Z,997.77
2018-12-22T02:27:44.618Z,997.73
2018-12-22T02:28:44.624Z,997.74
2018-12-22T02:29:44.597Z,997.52
2018-12-22T02:30:44.591Z,997.66
2018-12-22T02:31:44.582Z,997.66
2018-12-22T02:32:44.591Z,997.73
2018-12-22T02:33:44.622Z,997.71
2018-12-22T02:34:44.542Z,997.71
2018-12-22T02:35:44.551Z,997.59
2018-12-22T02:36:44.532Z,997.75
2018-12-22T02:37:44.515Z,997.73
2018-12-22T02:38:44.533Z,997.71
2018-12-22T02:39:44.487Z,997.70
2018-12-22T02:40:44.481Z,997.70
2018-12-22T02:41:44.470Z,997.75
2018-12-22T02:42:44.469Z,997.83
2018-12-22T02:43:44.469Z,997.84
2018-12-22T02:44:44.445Z,997.74
2018-12-22T02:45:44.428Z,997.74
2018-12-22T02:46:44.418Z,997.78
2018-12-22T02:47:44.403Z,997.81
2018-12-22T02:48:44.410Z,997.74
2018-12-22T02:49:44.516Z,997.91
2018-12-22T02:50:44.376Z,997.77
2018-12-22T02:51:44.356Z,997.78
2018-12-22T02:52:44.405Z,997.82
2018-12-22T02:53:44.373Z,997.91
2018-12-22T02:54:44.344Z,997.90
2018-12-22T02:55:44.345Z,997.75
2018-12-22T02:56:44.307Z,997.86
2018-12-22T02:57:44.296Z,997.94
2018-12-22T02:58:44.301Z,997.89
2018-12-22T02:59:44.302Z,997.87
2018-12-22T03:00:44.279Z,997.93
2018-12-22T03:01:44.256Z,997.84
2018-12-22T03:02:44.251Z,997.84
2018-12-22T03:03:44.234Z,997.86
2018-12-22T03:04:44.249Z,997.98
2018-12-22T03:05:44.219Z,997.99
2018-12-22T03:06:44.241Z,998.03
2018-12-22T03:07:44.192Z,997.93
2018-12-22T03:08:44.185Z,997.96
2018-12-22T03:09:44.200Z,997.89
2018-12-22T03:10:44.157Z,997.95
2018-12-22T03:11:44.160Z,997.87
2018-12-22T03:12:44.142Z,997.86
2018-12-22T03:13:44.131Z,997.90
2018-12-22T03:14:44.132Z,997.95
2018-12-22T03:15:44.119Z,998.07
2018-12-22T03:16:44.095Z,997.99
2018-12-22T03:17:44.092Z,998.06
2018-12-22T03:18:44.080Z,997.91
2018-12-22T03:19:44.079Z,997.99
2018-12-22T03:20:44.049Z,997.95
2018-12-22T03:21:44.053Z,997.95
2018-12-22T03:22:44.036Z,997.98
2018-12-22T03:23:44.034Z,998.14
2018-12-22T03:24:44.105Z,997.97
2018-12-22T03:25:43.995Z,998.04
2018-12-22T03:26:43.993Z,998.03
2018-12-22T03:27:43.995Z,998.01
2018-12-22T03:28:43.984Z,998.13
2018-12-22T03:29:43.981Z,998.14
2018-12-22T03:30:43.977Z,998.23
2018-12-22T03:31:43.933Z,998.22
2018-12-22T03:32:43.932Z,998.19
2018-12-22T03:33:43.913Z,998.26
2018-12-22T03:34:43.954Z,998.23
2018-12-22T03:35:43.899Z,998.30
2018-12-22T03:36:43.886Z,998.15
2018-12-22T03:37:43.871Z,998.34
2018-12-22T03:38:43.863Z,998.25
2018-12-22T03:39:43.849Z,998.30
2018-12-22T03:40:43.854Z,998.38
2018-12-22T03:41:43.827Z,998.27
2018-12-22T03:42:43.815Z,998.34
2018-12-22T03:43:43.812Z,998.42
2018-12-22T03:44:43.800Z,998.35
2018-12-22T03:45:43.809Z,998.42
2018-12-22T03:46:43.786Z,998.44
2018-12-22T03:47:43.860Z,998.41
2018-12-22T03:48:43.749Z,998.39
2018-12-22T03:49:43.747Z,998.61
2018-12-22T03:50:43.747Z,998.49
2018-12-22T03:51:43.724Z,998.57
2018-12-22T03:52:43.717Z,998.45
2018-12-22T03:53:43.701Z,998.45
2018-12-22T03:54:43.695Z,998.55
2018-12-22T03:55:43.695Z,998.49
2018-12-22T03:56:43.682Z,998.57
2018-12-22T03:57:43.666Z,998.51
2018-12-22T03:58:43.656Z,998.57
2018-12-22T03:59:43.630Z,998.59
2018-12-22T04:00:43.639Z,998.56
2018-12-22T04:01:43.613Z,998.54
2018-12-22T04:02:43.601Z,998.53
2018-12-22T04:03:43.609Z,998.63
2018-12-22T04:04:43.596Z,998.53
2018-12-22T04:05:43.601Z,998.53
2018-12-22T04:06:43.554Z,998.61
2018-12-22T04:07:43.551Z,998.58
2018-12-22T04:08:43.552Z,998.55
2018-12-22T04:09:43.537Z,998.64
2018-12-22T04:10:43.539Z,998.60
2018-12-22T04:11:43.517Z,998.63
2018-12-22T04:12:43.491Z,998.62
2018-12-22T04:13:43.483Z,998.74
2018-12-22T04:14:43.480Z,998.66
2018-12-22T04:15:43.484Z,998.65
2018-12-22T04:16:43.455Z,998.64
2018-12-22T04:17:43.447Z,998.78
2018-12-22T04:18:43.430Z,998.71
2018-12-22T04:19:43.420Z,998.67
2018-12-22T04:20:43.435Z,998.59
2018-12-22T04:21:43.438Z,998.86
2018-12-22T04:22:43.386Z,998.75
2018-12-22T04:23:43.376Z,998.66
2018-12-22T04:24:43.369Z,998.66
2018-12-22T04:25:43.368Z,998.85
2018-12-22T04:26:43.345Z,998.81
2018-12-22T04:27:43.347Z,998.73
2018-12-22T04:28:43.328Z,998.78
2018-12-22T04:29:43.314Z,998.79
2018-12-22T04:30:43.330Z,998.81
2018-12-22T04:31:43.292Z,998.83
2018-12-22T04:32:43.282Z,998.80
2018-12-22T04:33:43.276Z,998.73
2018-12-22T04:34:43.259Z,998.86
2018-12-22T04:35:43.248Z,998.88
2018-12-22T04:36:43.258Z,998.89
2018-12-22T04:37:43.232Z,998.81
2018-12-22T04:38:43.237Z,998.90
2018-12-22T04:39:43.203Z,998.95
2018-12-22T04:40:43.197Z,998.89
2018-12-22T04:41:43.205Z,998.95
2018-12-22T04:42:43.168Z,998.88
2018-12-22T04:43:43.166Z,999.03
2018-12-22T04:44:43.150Z,998.95
2018-12-22T04:45:43.141Z,998.96
2018-12-22T04:46:43.146Z,998.92
2018-12-22T04:47:43.116Z,999.01
2018-12-22T04:48:43.108Z,999.06
2018-12-22T04:49:43.103Z,999.07
2018-12-22T04:50:43.094Z,999.03
2018-12-22T04:51:43.098Z,999.10
2018-12-22T04:52:43.064Z,999.07
2018-12-22T04:53:43.059Z,999.05
2018-12-22T04:54:43.045Z,999.01
2018-12-22T04:55:43.036Z,999.00
2018-12-22T04:56:43.052Z,999.04
2018-12-22T04:57:43.012Z,999.00
2018-12-22T04:58:43.001Z,999.08
2018-12-22T04:59:43.415Z,998.97
2018-12-22T05:00:42.992Z,999.01
2018-12-22T05:01:42.988Z,999.03
2018-12-22T05:02:42.966Z,999.08
2018-12-22T05:03:42.944Z,999.10
2018-12-22T05:04:42.938Z,999.04
2018-12-22T05:05:42.927Z,999.07
2018-12-22T05:06:42.944Z,999.06
2018-12-22T05:07:42.910Z,999.05
2018-12-22T05:08:42.902Z,999.23
2018-12-22T05:09:42.904Z,999.15
2018-12-22T05:10:42.874Z,999.09
2018-12-22T05:11:42.856Z,999.18
2018-12-22T05:12:42.884Z,999.28
2018-12-22T05:13:42.876Z,999.28
2018-12-22T05:14:42.831Z,999.14
2018-12-22T05:15:42.821Z,999.29
2018-12-22T05:16:42.814Z,999.12
2018-12-22T05:17:43.120Z,999.32
2018-12-22T05:18:42.790Z,999.26
2018-12-22T05:19:42.780Z,999.26
2018-12-22T05:20:42.781Z,999.34
2018-12-22T05:21:42.752Z,999.35
2018-12-22T05:22:42.763Z,999.29
2018-12-22T05:23:42.736Z,999.26
2018-12-22T05:24:42.728Z,999.30
2018-12-22T05:25:42.716Z,999.34
2018-12-22T05:26:42.700Z,999.31
2018-12-22T05:27:42.716Z,999.29
2018-12-22T05:28:42.678Z,999.31
2018-12-22T05:29:51.430Z,999.41
2018-12-22T05:30:43.655Z,999.49
2018-12-22T05:31:42.646Z,999.38
2018-12-22T05:32:42.651Z,999.35
2018-12-22T05:33:42.630Z,999.45
2018-12-22T05:34:42.612Z,999.35
2018-12-22T05:35:42.610Z,999.48
2018-12-22T05:36:42.592Z,999.45
2018-12-22T05:37:42.605Z,999.40
2018-12-22T05:38:42.572Z,999.48
2018-12-22T05:39:42.581Z,999.44
2018-12-22T05:40:42.546Z,999.48
2018-12-22T05:41:42.539Z,999.44
2018-12-22T05:42:42.549Z,999.44
2018-12-22T05:43:42.527Z,999.43
2018-12-22T05:44:42.506Z,999.47
2018-12-22T05:45:42.503Z,999.49
2018-12-22T05:46:42.488Z,999.54
2018-12-22T05:47:42.498Z,999.48
2018-12-22T05:48:42.468Z,999.52
2018-12-22T05:49:42.464Z,999.54
2018-12-22T05:50:42.439Z,999.52
2018-12-22T05:51:42.435Z,999.46
2018-12-22T05:52:42.441Z,999.45
2018-12-22T05:53:42.411Z,999.52
2018-12-22T05:54:42.409Z,999.51
2018-12-22T05:55:42.391Z,999.57
2018-12-22T05:56:42.379Z,999.52
2018-12-22T05:57:42.383Z,999.55
2018-12-22T05:58:42.363Z,999.54
2018-12-22T05:59:42.345Z,999.59
2018-12-22T06:00:42.336Z,999.59
2018-12-22T06:01:42.329Z,999.56
2018-12-22T06:02:42.333Z,999.54
2018-12-22T06:03:42.301Z,999.56
2018-12-22T06:04:42.310Z,999.55
2018-12-22T06:05:42.280Z,999.61
2018-12-22T06:06:42.290Z,999.55
2018-12-22T06:07:42.287Z,999.55
2018-12-22T06:08:42.267Z,999.55
2018-12-22T06:09:42.239Z,999.58
2018-12-22T06:10:42.231Z,999.56
2018-12-22T06:11:42.218Z,999.56
2018-12-22T06:12:42.233Z,999.61
2018-12-22T06:13:42.195Z,999.50
2018-12-22T06:14:42.185Z,999.56
2018-12-22T06:15:42.179Z,999.45
2018-12-22T06:16:42.174Z,999.58
2018-12-22T06:17:42.157Z,999.54
2018-12-22T06:18:42.176Z,999.55
2018-12-22T06:19:42.130Z,999.44
2018-12-22T06:20:42.127Z,999.51
2018-12-22T06:21:42.114Z,999.50
2018-12-22T06:22:42.099Z,999.53
2018-12-22T06:23:42.108Z,999.52
2018-12-22T06:24:42.080Z,999.50
2018-12-22T06:25:42.074Z,999.56
2018-12-22T06:26:42.068Z,999.58
2018-12-22T06:27:42.054Z,999.57
2018-12-22T06:28:42.056Z,999.61
2018-12-22T06:29:42.024Z,999.55
2018-12-22T06:30:42.014Z,999.52
2018-12-22T06:31:42.014Z,999.52
2018-12-22T06:32:41.993Z,999.65
2018-12-22T06:33:42.000Z,999.62
2018-12-22T06:34:41.975Z,999.59
2018-12-22T06:35:41.965Z,999.59
2018-12-22T06:36:41.948Z,999.60
2018-12-22T06:37:41.939Z,999.64
2018-12-22T06:38:41.949Z,999.63
2018-12-22T06:39:41.940Z,999.62
2018-12-22T06:40:41.909Z,999.69
2018-12-22T06:41:41.903Z,999.72
2018-12-22T06:42:41.892Z,999.71
2018-12-22T06:43:41.899Z,999.72
2018-12-22T06:44:41.874Z,999.76
2018-12-22T06:45:41.875Z,999.74
2018-12-22T06:46:41.844Z,999.76
2018-12-22T06:47:41.844Z,999.82
2018-12-22T06:48:41.855Z,999.89
2018-12-22T06:49:41.809Z,999.85
2018-12-22T06:50:41.812Z,999.86
2018-12-22T06:51:41.794Z,999.79
2018-12-22T06:52:41.787Z,999.81
2018-12-22T06:53:42.096Z,999.92
2018-12-22T06:54:41.790Z,999.96
2018-12-22T06:55:41.751Z,999.94
2018-12-22T06:56:41.744Z,999.94
2018-12-22T06:57:41.728Z,999.89
2018-12-22T06:58:41.727Z,999.97
2018-12-22T06:59:41.723Z,1000.02
2018-12-22T07:00:41.696Z,999.95
2018-12-22T07:01:41.688Z,999.98
2018-12-22T07:02:41.701Z,999.94
2018-12-22T07:03:41.666Z,999.99
2018-12-22T07:04:41.672Z,999.93
2018-12-22T07:06:42.819Z,999.97
2018-12-22T07:07:41.638Z,1000.10
2018-12-22T07:08:41.620Z,1000.04
2018-12-22T07:09:41.834Z,1000.07
2018-12-22T07:10:41.590Z,1000.06
2018-12-22T07:11:41.578Z,1000.01
2018-12-22T07:12:41.562Z,1000.05
2018-12-22T07:13:41.562Z,1000.08
2018-12-22T07:14:41.584Z,1000.10
2018-12-22T07:15:41.538Z,1000.05
2018-12-22T07:16:41.534Z,1000.14
2018-12-22T07:17:41.525Z,1000.11
2018-12-22T07:18:41.500Z,1000.23
2018-12-22T07:19:41.524Z,1000.14
2018-12-22T07:20:41.482Z,1000.11
2018-12-22T07:21:41.480Z,1000.13
2018-12-22T07:22:41.473Z,1000.18
2018-12-22T07:23:41.449Z,1000.20
2018-12-22T07:24:41.460Z,1000.22
2018-12-22T07:25:41.430Z,1000.14
2018-12-22T07:26:41.416Z,1000.24
2018-12-22T07:27:41.418Z,1000.24
2018-12-22T07:28:41.392Z,1000.35
2018-12-22T07:29:41.418Z,1000.31
2018-12-22T07:30:41.380Z,1000.19
2018-12-22T07:31:41.362Z,1000.29
2018-12-22T07:32:41.354Z,1000.24
2018-12-22T07:33:41.352Z,1000.29
2018-12-22T07:34:41.361Z,1000.29
2018-12-22T07:35:41.326Z,1000.30
2018-12-22T07:36:41.325Z,1000.29
2018-12-22T07:37:41.298Z,1000.34
2018-12-22T07:38:41.288Z,1000.32
2018-12-22T07:39:41.298Z,1000.42
2018-12-22T07:40:41.272Z,1000.32
2018-12-22T07:41:41.264Z,1000.32
2018-12-22T07:42:41.246Z,1000.34
2018-12-22T07:43:41.245Z,1000.36
2018-12-22T07:44:41.265Z,1000.32
2018-12-22T07:45:41.218Z,1000.35
2018-12-22T07:46:41.202Z,1000.33
2018-12-22T07:47:41.196Z,1000.33
2018-12-22T07:48:41.192Z,1000.48
2018-12-22T07:49:41.173Z,1000.37
2018-12-22T07:50:41.188Z,1000.40
2018-12-22T07:51:41.155Z,1000.41
2018-12-22T07:52:41.149Z,1000.38
2018-12-22T07:53:41.132Z,1000.36
2018-12-22T07:54:41.131Z,1000.39
2018-12-22T07:55:41.145Z,1000.53
2018-12-22T07:56:41.100Z,1000.48
2018-12-22T07:57:41.085Z,1000.48
2018-12-22T07:58:41.077Z,1000.47
2018-12-22T07:59:41.074Z,1000.58
2018-12-22T08:00:41.082Z,1000.47
2018-12-22T08:01:41.048Z,1000.51
2018-12-22T08:02:41.038Z,1000.53
2018-12-22T08:03:41.045Z,1000.48
2018-12-22T08:04:41.021Z,1000.57
2018-12-22T08:05:41.048Z,1000.49
2018-12-22T08:06:40.998Z,1000.52
2018-12-22T08:07:40.980Z,1000.54
2018-12-22T08:08:40.966Z,1000.47
2018-12-22T08:09:40.957Z,1000.52
2018-12-22T08:10:40.948Z,1000.58
2018-12-22T08:11:40.954Z,1000.56
2018-12-22T08:12:40.928Z,1000.56
2018-12-22T08:13:40.978Z,1000.61
2018-12-22T08:14:40.905Z,1000.61
2018-12-22T08:15:42.976Z,1000.62
2018-12-22T08:16:41.658Z,1000.61
2018-12-22T08:17:40.879Z,1000.67
2018-12-22T08:18:40.880Z,1000.68
2018-12-22T08:19:40.858Z,1000.71
2018-12-22T08:20:40.841Z,1000.67
2018-12-22T08:21:40.830Z,1000.72
2018-12-22T08:22:40.839Z,1000.72
2018-12-22T08:23:40.804Z,1000.69
2018-12-22T08:24:40.800Z,1000.65
2018-12-22T08:25:40.790Z,1000.74
2018-12-22T08:26:40.782Z,1000.79
2018-12-22T08:27:40.807Z,1000.79
2018-12-22T08:28:40.756Z,1000.79
2018-12-22T08:29:40.748Z,1000.83
2018-12-22T08:30:43.630Z,1000.91
2018-12-22T08:31:40.724Z,1000.90
2018-12-22T08:32:40.739Z,1000.93
2018-12-22T08:33:40.880Z,1000.91
2018-12-22T08:34:40.696Z,1000.88
2018-12-22T08:35:40.679Z,1000.91
2018-12-22T08:36:40.667Z,1000.93
2018-12-22T08:37:40.677Z,1001.05
2018-12-22T08:38:40.646Z,1001.15
2018-12-22T08:39:40.641Z,1001.03
2018-12-22T08:40:40.636Z,1001.05
2018-12-22T08:41:40.614Z,1001.15
2018-12-22T08:42:40.633Z,1001.20
2018-12-22T08:43:40.688Z,1001.16
2018-12-22T08:44:42.803Z,1001.22
2018-12-22T08:45:40.571Z,1001.16
2018-12-22T08:46:40.588Z,1001.23
2018-12-22T08:47:40.560Z,1001.19
2018-12-22T08:48:40.615Z,1001.25
2018-12-22T08:49:40.539Z,1001.25
2018-12-22T08:50:40.517Z,1001.26
2018-12-22T08:51:40.519Z,1001.40
2018-12-22T08:52:40.495Z,1001.36
2018-12-22T08:53:40.506Z,1001.33
2018-12-22T08:54:40.480Z,1001.38
2018-12-22T08:55:40.560Z,1001.42
2018-12-22T08:56:40.456Z,1001.39
2018-12-22T08:57:40.450Z,1001.38
2018-12-22T08:58:40.455Z,1001.50
2018-12-22T08:59:40.422Z,1001.41
2018-12-22T09:00:40.417Z,1001.49
2018-12-22T09:01:40.410Z,1001.44
2018-12-22T09:02:40.405Z,1001.48
2018-12-22T09:03:40.388Z,1001.61
2018-12-22T09:04:40.402Z,1001.58
2018-12-22T09:05:40.360Z,1001.62
2018-12-22T09:06:40.391Z,1001.61
2018-12-22T09:07:40.338Z,1001.65
2018-12-22T09:08:40.328Z,1001.55
2018-12-22T09:09:40.567Z,1001.62
2018-12-22T09:10:40.301Z,1001.65
2018-12-22T09:11:40.297Z,1001.66
2018-12-22T09:12:40.449Z,1001.67
2018-12-22T09:13:40.302Z,1001.66
2018-12-22T09:14:40.276Z,1001.65
2018-12-22T09:15:40.250Z,1001.72
2018-12-22T09:16:40.238Z,1001.50
2018-12-22T09:17:40.230Z,1001.64
2018-12-22T09:18:40.229Z,1001.65
2018-12-22T09:19:40.222Z,1001.68
2018-12-22T09:20:40.200Z,1001.66
2018-12-22T09:21:40.207Z,1001.64
2018-12-22T09:22:40.179Z,1001.67
2018-12-22T09:23:40.167Z,1001.70
2018-12-22T09:24:40.176Z,1001.65
2018-12-22T09:25:40.145Z,1001.75
2018-12-22T09:26:40.156Z,1001.69
2018-12-22T09:27:40.120Z,1001.75
2018-12-22T09:28:40.117Z,1001.80
2018-12-22T09:29:40.102Z,1001.79
2018-12-22T09:30:40.098Z,1001.81
2018-12-22T09:31:40.102Z,1001.75
2018-12-22T09:32:40.070Z,1001.75
2018-12-22T09:33:40.055Z,1001.74
2018-12-22T09:34:40.042Z,1001.78
2018-12-22T09:35:40.052Z,1001.76
2018-12-22T09:36:40.025Z,1001.79
2018-12-22T09:37:40.032Z,1001.82
2018-12-22T09:38:40.011Z,1001.83
2018-12-22T09:39:39.994Z,1001.79
2018-12-22T09:40:39.980Z,1001.88
2018-12-22T09:41:40.042Z,1001.84
2018-12-22T09:42:39.958Z,1001.88
2018-12-22T09:43:39.972Z,1001.89
2018-12-22T09:44:39.998Z,1001.87
2018-12-22T09:45:39.976Z,1001.87
2018-12-22T09:46:40.024Z,1001.80
2018-12-22T09:47:39.965Z,1001.83
2018-12-22T09:48:39.902Z,1001.85
2018-12-22T09:49:39.894Z,1001.85
2018-12-22T09:50:39.879Z,1001.80
2018-12-22T09:51:40.020Z,1001.82
2018-12-22T09:52:39.850Z,1001.87
2018-12-22T09:53:39.904Z,1001.83
2018-12-22T09:54:39.832Z,1001.82
2018-12-22T09:55:39.900Z,1001.88
2018-12-22T09:56:39.825Z,1001.83
2018-12-22T09:57:39.821Z,1001.87
2018-12-22T09:58:39.912Z,1001.91
2018-12-22T09:59:39.782Z,1001.89
2018-12-22T10:00:39.770Z,1001.96
2018-12-22T10:01:39.758Z,1001.90
2018-12-22T10:02:39.770Z,1002.00
2018-12-22T10:03:39.733Z,1002.04
2018-12-22T10:04:39.735Z,1002.07
2018-12-22T10:05:39.722Z,1002.08
2018-12-22T10:06:39.725Z,1002.17
2018-12-22T10:07:39.718Z,1002.19
2018-12-22T10:08:39.747Z,1002.24
2018-12-22T10:09:39.671Z,1002.26
2018-12-22T10:10:39.664Z,1002.24
2018-12-22T10:11:39.674Z,1002.24
2018-12-22T10:12:39.831Z,1002.28
2018-12-22T10:13:39.636Z,1002.43
2018-12-22T10:14:39.620Z,1002.26
2018-12-22T10:15:39.604Z,1002.31
2018-12-22T10:16:39.609Z,1002.43
2018-12-22T10:17:39.603Z,1002.41
2018-12-22T10:18:39.578Z,1002.43
2018-12-22T10:19:39.578Z,1002.54
2018-12-22T10:20:39.627Z,1002.54
2018-12-22T10:21:39.548Z,1002.45
2018-12-22T10:22:39.570Z,1002.48
2018-12-22T10:23:39.527Z,1002.46
2018-12-22T10:24:39.519Z,1002.50
2018-12-22T10:25:39.524Z,1002.52
2018-12-22T10:26:39.505Z,1002.56
2018-12-22T10:27:39.493Z,1002.53
2018-12-22T10:28:39.485Z,1002.53
2018-12-22T10:29:39.460Z,1002.54
2018-12-22T10:30:39.444Z,1002.56
2018-12-22T10:31:39.504Z,1002.58
2018-12-22T10:32:39.422Z,1002.58
2018-12-22T10:33:39.451Z,1002.64
2018-12-22T10:34:39.479Z,1002.64
2018-12-22T10:35:39.400Z,1002.72
2018-12-22T10:36:39.380Z,1002.70
2018-12-22T10:37:39.367Z,1002.75
2018-12-22T10:38:39.393Z,1002.76
2018-12-22T10:39:39.920Z,1002.84
2018-12-22T10:40:39.343Z,1002.83
2018-12-22T10:41:39.327Z,1002.96
2018-12-22T10:42:39.316Z,1002.94
2018-12-22T10:43:39.327Z,1002.92
2018-12-22T10:44:39.306Z,1002.90
2018-12-22T10:45:39.291Z,1003.01
2018-12-22T10:46:39.278Z,1002.95
2018-12-22T10:47:39.427Z,1002.96
2018-12-22T10:48:39.358Z,1002.98
2018-12-22T10:49:39.249Z,1002.94
2018-12-22T10:50:39.237Z,1002.96
2018-12-22T10:51:39.222Z,1003.07
2018-12-22T10:52:39.214Z,1002.98
2018-12-22T10:53:39.298Z,1003.00
2018-12-22T10:54:39.198Z,1003.07
2018-12-22T10:55:39.187Z,1003.05
2018-12-22T10:56:39.173Z,1003.17
2018-12-22T10:57:39.203Z,1003.07
2018-12-22T10:58:39.170Z,1003.13
2018-12-22T10:59:39.145Z,1003.10
2018-12-22T11:00:39.124Z,1003.20
2018-12-22T11:01:39.142Z,1003.14
2018-12-22T11:02:39.104Z,1003.20
2018-12-22T11:03:39.223Z,1003.25
2018-12-22T11:04:39.096Z,1003.21
2018-12-22T11:05:39.116Z,1003.30
2018-12-22T11:06:39.058Z,1003.39
2018-12-22T11:08:40.199Z,1003.37
2018-12-22T11:09:40.076Z,1003.40
2018-12-22T11:10:39.023Z,1003.43
2018-12-22T11:11:39.011Z,1003.46
2018-12-22T11:12:38.995Z,1003.60
2018-12-22T11:13:38.996Z,1003.57
2018-12-22T11:14:38.980Z,1003.64
2018-12-22T11:15:39.018Z,1003.65
2018-12-22T11:16:38.951Z,1003.57
2018-12-22T11:17:38.944Z,1003.53
2018-12-22T11:18:38.974Z,1003.67
2018-12-22T11:19:38.917Z,1003.53
2018-12-22T11:20:38.922Z,1003.57
2018-12-22T11:21:38.916Z,1003.60
2018-12-22T11:22:38.890Z,1003.64
2018-12-22T11:23:38.876Z,1003.63
2018-12-22T11:24:38.874Z,1003.63
2018-12-22T11:25:39.194Z,1003.65
2018-12-22T11:26:38.858Z,1003.69
2018-12-22T11:27:38.836Z,1003.62
2018-12-22T11:28:38.830Z,1003.66
2018-12-22T11:29:38.812Z,1003.68
2018-12-22T11:30:38.814Z,1003.65
2018-12-22T11:31:38.817Z,1003.66
2018-12-22T11:32:38.790Z,1003.69
2018-12-22T11:33:38.777Z,1003.77
2018-12-22T11:34:38.762Z,1003.78
2018-12-22T11:35:38.753Z,1003.73
2018-12-22T11:36:38.762Z,1003.81
2018-12-22T11:37:38.730Z,1003.79
2018-12-22T11:38:38.730Z,1003.81
2018-12-22T11:39:38.710Z,1003.78
2018-12-22T11:40:38.696Z,1003.83
2018-12-22T11:41:38.715Z,1003.95
2018-12-22T11:42:38.685Z,1003.95
2018-12-22T11:43:39.666Z,1003.97
2018-12-22T11:44:38.668Z,1003.96
2018-12-22T11:45:38.641Z,1004.08
2018-12-22T11:46:38.642Z,1004.05
2018-12-22T11:47:38.629Z,1004.07
2018-12-22T11:48:38.613Z,1004.06
2018-12-22T11:49:38.617Z,1004.12
2018-12-22T11:50:38.588Z,1004.08
2018-12-22T11:51:38.614Z,1004.14
2018-12-22T11:52:39.591Z,1004.11
2018-12-22T11:53:38.568Z,1004.11
2018-12-22T11:54:38.578Z,1004.13
2018-12-22T11:55:38.544Z,1004.13
2018-12-22T11:56:38.520Z,1004.09
2018-12-22T11:57:38.517Z,1004.21
2018-12-22T11:58:38.502Z,1004.28
2018-12-22T11:59:38.518Z,1004.17
2018-12-22T12:00:38.491Z,1004.28
2018-12-22T12:01:43.566Z,1004.27
2018-12-22T12:02:39.462Z,1004.23
2018-12-22T12:03:38.466Z,1004.31
2018-12-22T12:04:38.439Z,1004.31
2018-12-22T12:05:38.464Z,1004.38
2018-12-22T12:06:38.428Z,1004.41
2018-12-22T12:07:38.420Z,1004.50
2018-12-22T12:08:38.404Z,1004.56
2018-12-22T12:09:38.405Z,1004.55
2018-12-22T12:10:38.376Z,1004.52
2018-12-22T12:11:38.365Z,1004.59
2018-12-22T12:12:38.362Z,1004.65
2018-12-22T12:13:38.356Z,1004.63
2018-12-22T12:14:38.382Z,1004.65
2018-12-22T12:15:38.322Z,1004.78
2018-12-22T12:16:38.311Z,1004.82
2018-12-22T12:17:38.299Z,1004.73
2018-12-22T12:18:38.297Z,1004.76
2018-12-22T12:19:38.305Z,1004.83
2018-12-22T12:20:38.311Z,1004.86